createdAt,value
2023-04-07T00:01:00.926Z,10.00
2023-04-07T00:06:02.725Z,10.00
2023-04-07T00:11:04.468Z,10.00
2023-04-07T00:16:06.375Z,10.00
2023-04-07T00:21:08.094Z,10.10
2023-04-07T00:26:09.946Z,10.00
2023-04-07T00:31:11.723Z,10.00
2023-04-07T00:36:13.506Z,9.90
2023-04-07T00:41:15.797Z,9.90
2023-04-07T00:46:19.741Z,9.80
2023-04-07T00:51:24.776Z,9.70
2023-04-07T00:56:27.577Z,9.50
2023-04-07T01:01:41.199Z,9.60
2023-04-07T01:06:50.143Z,9.40
2023-04-07T01:12:26.657Z,9.40
2023-04-07T01:17:29.436Z,9.20
2023-04-07T01:22:56.033Z,9.10
2023-04-07T01:28:49.849Z,9.30
2023-04-07T01:33:53.243Z,9.30
2023-04-07T01:38:55.630Z,9.40
2023-04-07T01:43:58.290Z,9.50
2023-04-07T01:49:01.847Z,9.40
2023-04-07T01:54:05.237Z,9.50
2023-04-07T01:59:06.933Z,9.40
2023-04-07T02:04:16.747Z,9.50
2023-04-07T02:09:21.376Z,9.40
2023-04-07T02:14:24.948Z,9.60
2023-04-07T02:19:27.446Z,9.50
2023-04-07T02:24:29.278Z,9.50
2023-04-07T02:29:31.181Z,9.50
2023-04-07T02:34:32.898Z,9.50
2023-04-07T02:39:34.609Z,9.50
2023-04-07T02:44:36.284Z,9.20
2023-04-07T02:49:38.031Z,9.10
2023-04-07T02:54:39.746Z,8.90
2023-04-07T02:59:41.665Z,8.90
2023-04-07T03:04:43.426Z,8.80
2023-04-07T03:09:45.395Z,8.70
2023-04-07T03:14:47.088Z,8.40
2023-04-07T03:19:48.787Z,8.40
2023-04-07T03:24:50.726Z,8.20
2023-04-07T03:29:53.202Z,8.20
2023-04-07T03:34:54.880Z,8.30
2023-04-07T03:39:56.640Z,8.20
2023-04-07T03:44:58.303Z,8.00
2023-04-07T03:50:00.006Z,8.00
2023-04-07T03:55:01.747Z,8.10
2023-04-07T04:00:04.154Z,8.20
2023-04-07T04:05:06.440Z,8.20
2023-04-07T04:10:08.670Z,8.30
2023-04-07T04:15:11.072Z,8.40
2023-04-07T04:20:13.022Z,8.40
2023-04-07T04:25:16.705Z,8.50
2023-04-07T04:30:18.510Z,8.40
2023-04-07T04:35:20.399Z,8.30
2023-04-07T04:40:22.515Z,8.20
2023-04-07T04:45:24.213Z,8.10
2023-04-07T04:50:25.994Z,8.10
2023-04-07T04:55:27.673Z,8.20
2023-04-07T05:00:29.346Z,8.20
2023-04-07T05:05:31.025Z,8.30
2023-04-07T05:10:32.721Z,8.30
2023-04-07T05:15:34.507Z,8.20
2023-04-07T05:20:36.198Z,8.20
2023-04-07T05:25:37.921Z,8.20
2023-04-07T05:30:39.705Z,8.30
2023-04-07T05:35:41.454Z,8.50
2023-04-07T05:40:43.222Z,8.70
2023-04-07T05:45:44.989Z,8.80
2023-04-07T05:50:46.749Z,8.90
2023-04-07T05:55:48.501Z,8.90
2023-04-07T06:00:50.547Z,9.00
2023-04-07T06:05:52.458Z,8.80
2023-04-07T06:10:54.800Z,9.00
2023-04-07T06:15:56.863Z,9.10
2023-04-07T06:20:58.574Z,9.10
2023-04-07T06:26:00.465Z,9.30
2023-04-07T06:31:02.173Z,9.40
2023-04-07T06:36:04.224Z,9.50
2023-04-07T06:41:06.512Z,9.60
2023-04-07T06:46:08.308Z,9.60
2023-04-07T06:51:10.009Z,9.80
2023-04-07T06:56:12.112Z,10.00
2023-04-07T07:01:13.945Z,10.10
2023-04-07T07:06:15.705Z,10.20
2023-04-07T07:11:17.408Z,10.40
2023-04-07T07:16:19.204Z,10.60
2023-04-07T07:21:21.284Z,10.70
2023-04-07T07:26:23.052Z,10.70
2023-04-07T07:31:24.864Z,10.90
2023-04-07T07:36:26.791Z,11.20
2023-04-07T07:41:28.492Z,11.30
2023-04-07T07:46:30.401Z,11.30
2023-04-07T07:51:32.260Z,11.40
2023-04-07T07:56:33.960Z,11.10
2023-04-07T08:01:35.914Z,10.60
2023-04-07T08:06:37.812Z,10.60
2023-04-07T08:11:39.586Z,10.50
2023-04-07T08:16:41.414Z,10.90
2023-04-07T08:21:43.172Z,10.90
2023-04-07T08:26:45.754Z,11.00
2023-04-07T08:31:47.494Z,10.90
2023-04-07T08:36:49.314Z,10.40
2023-04-07T08:41:51.687Z,10.30
2023-04-07T08:46:57.491Z,10.30
2023-04-07T08:52:00.756Z,9.90
2023-04-07T08:57:03.585Z,9.70
2023-04-07T09:02:05.755Z,9.60
2023-04-07T09:07:07.516Z,9.60
2023-04-07T09:12:09.284Z,9.50
2023-04-07T09:17:10.977Z,9.20
2023-04-07T09:22:14.305Z,9.50
2023-04-07T09:27:18.925Z,9.40
2023-04-07T09:32:41.372Z,9.20
2023-04-07T09:37:43.665Z,9.30
2023-04-07T09:42:46.559Z,9.10
2023-04-07T09:47:48.383Z,9.30
2023-04-07T09:52:53.827Z,9.40
2023-04-07T09:57:56.052Z,9.10
2023-04-07T10:02:58.886Z,8.90
2023-04-07T10:08:02.381Z,8.70
2023-04-07T10:13:06.510Z,8.60
2023-04-07T10:18:09.042Z,8.40
2023-04-07T10:23:38.615Z,8.60
2023-04-07T10:28:44.123Z,8.30
2023-04-07T10:33:56.453Z,8.40
2023-04-07T10:39:07.143Z,8.60
2023-04-07T10:44:12.012Z,8.60
2023-04-07T10:49:16.324Z,8.90
2023-04-07T10:54:26.308Z,9.00
2023-04-07T10:59:34.419Z,8.60
2023-04-07T11:04:40.936Z,8.40
2023-04-07T11:09:43.008Z,8.30
2023-04-07T11:14:44.702Z,8.30
2023-04-07T11:19:53.958Z,7.90
2023-04-07T11:24:55.798Z,8.20
2023-04-07T11:29:57.650Z,8.50
2023-04-07T11:34:59.432Z,8.40
2023-04-07T11:40:01.159Z,8.20
2023-04-07T11:45:03.463Z,8.70
2023-04-07T11:50:05.940Z,8.90
2023-04-07T11:55:16.453Z,8.60
2023-04-07T12:00:19.456Z,8.60
2023-04-07T12:05:21.407Z,8.70
2023-04-07T12:10:27.786Z,9.10
2023-04-07T12:15:29.506Z,9.10
2023-04-07T12:20:31.529Z,9.20
2023-04-07T12:25:33.327Z,9.40
2023-04-07T12:30:35.132Z,9.50
2023-04-07T12:35:36.970Z,9.40
2023-04-07T12:40:38.902Z,9.80
2023-04-07T12:45:40.651Z,9.90
2023-04-07T12:50:42.432Z,9.70
2023-04-07T12:55:44.132Z,10.00
2023-04-07T13:00:48.929Z,10.00
2023-04-07T13:05:50.770Z,10.10
2023-04-07T13:10:52.543Z,9.90
2023-04-07T13:15:54.460Z,10.10
2023-04-07T13:21:26.591Z,10.10
2023-04-07T13:26:17.817Z,10.20
2023-04-07T13:31:21.916Z,10.20
2023-04-07T13:36:24.820Z,10.20
2023-04-07T13:41:26.643Z,10.10
2023-04-07T13:46:30.038Z,10.30
2023-04-07T13:51:32.351Z,10.20
2023-04-07T13:56:35.572Z,10.10
2023-04-07T14:01:39.206Z,10.20
2023-04-07T14:06:41.664Z,10.20
2023-04-07T14:11:43.506Z,9.80
2023-04-07T14:16:45.190Z,9.30
2023-04-07T14:21:46.871Z,9.50
2023-04-07T14:26:49.123Z,9.30
2023-04-07T14:31:51.480Z,9.40
2023-04-07T14:36:55.211Z,9.40
2023-04-07T14:41:57.954Z,9.20
2023-04-07T14:47:00.154Z,9.40
2023-04-07T14:52:01.949Z,9.30
2023-04-07T14:57:03.708Z,9.50
2023-04-07T15:02:05.622Z,9.50
2023-04-07T15:07:07.566Z,9.80
2023-04-07T15:12:09.294Z,10.00
2023-04-07T15:17:10.934Z,10.10
2023-04-07T15:22:12.613Z,10.20
2023-04-07T15:27:14.425Z,10.30
2023-04-07T15:32:16.185Z,10.80
2023-04-07T15:37:18.859Z,11.40
2023-04-07T15:42:20.592Z,11.30
2023-04-07T15:47:22.267Z,11.80
2023-04-07T15:52:24.704Z,12.30
2023-04-07T15:57:26.359Z,12.30
2023-04-07T16:02:28.221Z,12.20
2023-04-07T16:07:30.007Z,12.10
2023-04-07T16:12:34.345Z,11.90
2023-04-07T16:17:37.106Z,11.80
2023-04-07T16:22:38.842Z,11.90
2023-04-07T16:27:40.712Z,11.80
2023-04-07T16:32:44.464Z,11.40
2023-04-07T16:37:46.546Z,11.50
2023-04-07T16:42:48.326Z,11.10
2023-04-07T16:47:50.553Z,10.70
2023-04-07T16:52:52.801Z,10.40
2023-04-07T16:57:54.509Z,10.50
2023-04-07T17:02:56.287Z,10.40
2023-04-07T17:07:58.046Z,10.30
2023-04-07T17:12:59.742Z,10.40
2023-04-07T17:18:01.533Z,10.30
2023-04-07T17:23:03.243Z,10.40
2023-04-07T17:28:04.964Z,10.30
2023-04-07T17:33:08.237Z,10.20
2023-04-07T17:38:10.485Z,10.30
2023-04-07T17:43:12.250Z,10.20
2023-04-07T17:48:14.042Z,10.10
2023-04-07T17:53:16.296Z,10.20
2023-04-07T17:58:20.115Z,10.10
2023-04-07T18:03:22.444Z,10.10
2023-04-07T18:08:24.984Z,9.80
2023-04-07T18:13:26.785Z,9.80
2023-04-07T18:18:28.513Z,9.70
2023-04-07T18:23:30.283Z,9.60
2023-04-07T18:28:32.260Z,9.50
2023-04-07T18:33:35.278Z,9.30
2023-04-07T18:38:38.117Z,9.20
2023-04-07T18:43:40.075Z,9.10
2023-04-07T18:48:44.223Z,9.10
2023-04-07T18:53:46.258Z,9.00
2023-04-07T18:58:48.890Z,8.90
2023-04-07T19:03:50.799Z,8.60
2023-04-07T19:08:52.690Z,8.70
2023-04-07T19:13:56.322Z,8.60
2023-04-07T19:18:58.038Z,8.50
2023-04-07T19:23:59.796Z,8.40
2023-04-07T19:29:03.309Z,8.20
2023-04-07T19:34:05.063Z,8.10
2023-04-07T19:39:06.838Z,8.00
2023-04-07T19:44:08.622Z,8.00
2023-04-07T19:49:11.366Z,7.80
2023-04-07T19:54:13.229Z,7.70
2023-04-07T19:59:14.989Z,7.80
2023-04-07T20:04:16.791Z,7.60
2023-04-07T20:09:20.445Z,7.90
2023-04-07T20:14:22.191Z,8.10
2023-04-07T20:19:23.973Z,8.10
2023-04-07T20:24:25.959Z,8.00
2023-04-07T20:29:27.786Z,8.10
2023-04-07T20:34:29.640Z,8.20
2023-04-07T20:39:31.534Z,8.20
2023-04-07T20:44:33.258Z,8.00
2023-04-07T20:49:36.178Z,8.00
2023-04-07T20:54:37.921Z,7.70
2023-04-07T20:59:39.681Z,7.80
2023-04-07T21:04:41.544Z,7.70
2023-04-07T21:09:43.267Z,7.70
2023-04-07T21:14:45.750Z,8.00
2023-04-07T21:19:47.685Z,8.10
2023-04-07T21:24:49.387Z,7.50
2023-04-07T21:29:51.252Z,7.70
2023-04-07T21:34:53.264Z,7.70
2023-04-07T21:39:55.130Z,7.70
2023-04-07T21:44:57.096Z,7.80
2023-04-07T21:49:59.651Z,7.90
2023-04-07T21:55:01.444Z,8.00
2023-04-07T22:00:03.299Z,8.10
2023-04-07T22:05:05.371Z,8.00
2023-04-07T22:10:07.782Z,8.10
2023-04-07T22:15:10.987Z,7.90
2023-04-07T22:20:12.910Z,7.80
2023-04-07T22:25:14.635Z,7.90
2023-04-07T22:30:16.588Z,7.90
2023-04-07T22:35:18.317Z,7.80
2023-04-07T22:40:19.994Z,7.50
2023-04-07T22:45:21.646Z,7.40
2023-04-07T22:50:23.317Z,7.50
2023-04-07T22:55:25.056Z,7.40
2023-04-07T23:00:26.813Z,7.40
2023-04-07T23:05:28.537Z,7.30
2023-04-07T23:10:32.032Z,7.40
2023-04-07T23:15:36.596Z,7.20
2023-04-07T23:20:38.273Z,7.20
2023-04-07T23:25:39.909Z,7.30
2023-04-07T23:30:41.620Z,7.50
2023-04-07T23:35:43.368Z,7.50
2023-04-07T23:40:45.091Z,7.50
2023-04-07T23:45:46.852Z,7.50
2023-04-07T23:50:50.553Z,7.40
2023-04-07T23:55:52.305Z,7.40
